createdAt,value
2017-02-20T00:04:23.144Z,6.66
2017-02-20T00:09:19.470Z,6.69
2017-02-20T00:14:16.184Z,6.60
2017-02-20T00:19:12.779Z,6.60
2017-02-20T00:24:09.338Z,6.62
2017-02-20T00:29:06.862Z,6.70
2017-02-20T00:34:02.702Z,6.63
2017-02-20T00:38:59.130Z,6.63
2017-02-20T00:43:55.530Z,6.64
2017-02-20T00:48:52.004Z,6.67
2017-02-20T00:53:48.802Z,6.81
2017-02-20T00:58:45.105Z,6.70
2017-02-20T01:03:41.729Z,6.84
2017-02-20T01:08:38.274Z,6.74
2017-02-20T01:13:35.296Z,6.77
2017-02-20T01:18:32.017Z,6.77
2017-02-20T01:23:28.118Z,6.85
2017-02-20T01:28:24.403Z,6.77
2017-02-20T01:33:20.869Z,6.64
2017-02-20T01:38:17.255Z,6.78
2017-02-20T01:43:14.126Z,6.74
2017-02-20T01:48:10.988Z,6.69
2017-02-20T01:53:07.718Z,6.77
2017-02-20T01:58:03.905Z,6.75
2017-02-20T02:03:00.551Z,6.81
2017-02-20T02:07:56.954Z,6.81
2017-02-20T02:12:52.864Z,6.84
2017-02-20T02:17:49.388Z,6.87
2017-02-20T02:22:45.555Z,6.92
2017-02-20T02:27:42.057Z,7.02
2017-02-20T02:32:38.349Z,6.96
2017-02-20T02:37:35.168Z,7.00
2017-02-20T02:42:32.199Z,6.95
2017-02-20T02:47:28.545Z,6.99
2017-02-20T02:52:24.865Z,6.93
2017-02-20T02:57:21.833Z,7.05
2017-02-20T03:02:18.336Z,7.03
2017-02-20T03:07:14.623Z,7.07
2017-02-20T03:12:11.369Z,7.18
2017-02-20T03:17:07.688Z,7.11
2017-02-20T03:22:04.181Z,7.14
2017-02-20T03:27:01.105Z,7.15
2017-02-20T03:31:57.543Z,7.15
2017-02-20T03:36:53.861Z,7.21
2017-02-20T03:41:50.014Z,7.21
2017-02-20T03:46:47.229Z,7.21
2017-02-20T03:51:43.542Z,7.24
2017-02-20T03:56:40.241Z,7.32
2017-02-20T04:01:36.670Z,7.31
2017-02-20T04:06:33.201Z,7.32
2017-02-20T04:11:29.436Z,7.31
2017-02-20T04:16:25.750Z,7.35
2017-02-20T04:21:22.158Z,7.36
2017-02-20T04:26:18.603Z,7.38
2017-02-20T04:31:14.883Z,7.29
2017-02-20T04:36:11.392Z,7.43
2017-02-20T04:41:07.817Z,7.36
2017-02-20T04:46:03.800Z,7.38
2017-02-20T04:51:00.197Z,7.47
2017-02-20T04:55:57.038Z,7.48
2017-02-20T05:00:53.479Z,7.43
2017-02-20T05:05:50.728Z,7.47
2017-02-20T05:10:47.076Z,7.53
2017-02-20T05:15:43.255Z,7.53
2017-02-20T05:20:39.716Z,7.56
2017-02-20T05:25:36.044Z,7.54
2017-02-20T05:30:32.494Z,7.57
2017-02-20T05:35:28.884Z,7.69
2017-02-20T05:40:26.460Z,7.80
2017-02-20T05:45:22.576Z,7.76
2017-02-20T05:50:19.063Z,7.67
2017-02-20T05:55:15.517Z,7.67
2017-02-20T06:00:11.860Z,7.66
2017-02-20T06:05:08.330Z,7.61
2017-02-20T06:10:04.688Z,7.54
2017-02-20T06:15:01.276Z,7.54
2017-02-20T06:19:57.473Z,7.61
2017-02-20T06:24:54.178Z,7.61
2017-02-20T06:29:50.467Z,7.69
2017-02-20T06:34:47.039Z,7.69
2017-02-20T06:39:43.644Z,7.75
2017-02-20T06:44:40.152Z,7.73
2017-02-20T06:49:36.506Z,7.67
2017-02-20T06:54:32.846Z,7.75
2017-02-20T06:59:29.336Z,7.67
2017-02-20T07:04:25.819Z,7.72
2017-02-20T07:09:22.587Z,7.77
2017-02-20T07:14:19.290Z,7.88
2017-02-20T07:19:15.926Z,7.77
2017-02-20T07:24:12.452Z,7.94
2017-02-20T07:29:09.128Z,7.94
2017-02-20T07:34:05.635Z,7.88
2017-02-20T07:39:01.726Z,7.82
2017-02-20T07:43:58.369Z,7.77
2017-02-20T07:53:54.958Z,7.79
2017-02-20T07:58:51.322Z,7.82
2017-02-20T08:03:47.786Z,7.79
2017-02-20T08:08:44.492Z,7.76
2017-02-20T08:13:40.841Z,7.88
2017-02-20T08:18:37.380Z,7.88
2017-02-20T08:23:33.860Z,7.87
2017-02-20T08:28:29.914Z,8.03
2017-02-20T08:33:27.312Z,8.08
2017-02-20T08:38:23.818Z,8.10
2017-02-20T08:43:20.063Z,8.15
2017-02-20T08:48:16.547Z,8.19
2017-02-20T08:53:13.382Z,8.13
2017-02-20T08:58:09.352Z,8.20
2017-02-20T09:03:06.118Z,8.33
2017-02-20T09:08:03.130Z,8.34
2017-02-20T09:13:00.021Z,8.33
2017-02-20T09:17:56.598Z,8.36
2017-02-20T09:22:52.963Z,8.46
2017-02-20T09:27:49.604Z,8.37
2017-02-20T09:32:46.230Z,8.42
2017-02-20T09:37:42.535Z,8.46
2017-02-20T09:42:39.471Z,8.51
2017-02-20T09:47:36.703Z,8.56
2017-02-20T09:52:33.220Z,8.60
2017-02-20T09:57:29.769Z,8.53
2017-02-20T10:02:26.342Z,8.55
2017-02-20T10:07:22.392Z,8.48
2017-02-20T10:12:19.065Z,8.51
2017-02-20T10:17:15.048Z,8.53
2017-02-20T10:22:12.028Z,8.58
2017-02-20T10:27:08.646Z,8.71
2017-02-20T10:32:05.346Z,8.67
2017-02-20T10:37:01.745Z,8.81
2017-02-20T10:41:58.204Z,8.71
2017-02-20T10:46:54.706Z,8.82
2017-02-20T10:51:51.300Z,8.81
2017-02-20T10:56:49.102Z,8.78
2017-02-20T11:01:45.233Z,8.63
2017-02-20T11:06:41.392Z,8.71
2017-02-20T11:11:38.021Z,8.76
2017-02-20T11:16:34.954Z,8.84
2017-02-20T11:21:31.583Z,8.79
2017-02-20T11:26:28.085Z,8.84
2017-02-20T11:31:24.426Z,8.81
2017-02-20T11:36:21.212Z,8.89
2017-02-20T11:41:17.713Z,8.66
2017-02-20T11:46:14.356Z,8.79
2017-02-20T11:51:10.959Z,8.79
2017-02-20T11:56:07.695Z,8.79
2017-02-20T12:01:04.071Z,8.82
2017-02-20T12:06:00.619Z,8.99
2017-02-20T12:10:57.148Z,8.97
2017-02-20T12:15:53.676Z,8.92
2017-02-20T12:20:50.317Z,9.03
2017-02-20T12:25:46.751Z,9.10
2017-02-20T12:30:43.349Z,9.10
2017-02-20T12:35:39.854Z,9.11
2017-02-20T12:40:36.116Z,9.03
2017-02-20T12:45:32.522Z,9.16
2017-02-20T12:50:30.514Z,9.22
2017-02-20T12:55:26.662Z,9.10
2017-02-20T13:00:23.233Z,9.16
2017-02-20T13:05:20.532Z,9.16
2017-02-20T13:10:18.311Z,9.31
2017-02-20T13:15:14.524Z,9.29
2017-02-20T13:20:10.872Z,9.29
2017-02-20T13:25:07.315Z,9.32
2017-02-20T13:30:03.521Z,9.23
2017-02-20T13:34:59.875Z,9.28
2017-02-20T13:39:56.430Z,9.36
2017-02-20T13:44:54.290Z,9.47
2017-02-20T13:49:50.571Z,9.44
2017-02-20T13:54:47.312Z,9.39
2017-02-20T13:59:43.842Z,9.44
2017-02-20T14:04:40.409Z,9.47
2017-02-20T14:09:36.753Z,9.48
2017-02-20T14:14:33.330Z,9.51
2017-02-20T14:19:29.945Z,9.64
2017-02-20T14:24:26.771Z,9.66
2017-02-20T14:29:23.285Z,9.62
2017-02-20T14:34:19.811Z,9.74
2017-02-20T14:39:16.261Z,9.68
2017-02-20T14:44:13.184Z,9.51
2017-02-20T14:49:09.746Z,9.56
2017-02-20T14:54:06.657Z,9.56
2017-02-20T14:59:03.173Z,9.50
2017-02-20T15:03:59.641Z,9.48
2017-02-20T15:08:56.257Z,9.54
2017-02-20T15:13:52.641Z,9.46
2017-02-20T15:18:48.706Z,9.55
2017-02-20T15:23:44.956Z,9.46
2017-02-20T15:28:42.324Z,9.48
2017-02-20T15:33:38.518Z,9.50
2017-02-20T15:38:34.921Z,9.51
2017-02-20T15:43:31.742Z,9.50
2017-02-20T15:48:28.942Z,9.41
2017-02-20T15:53:25.376Z,9.58
2017-02-20T15:58:21.723Z,9.47
2017-02-20T16:03:18.163Z,9.46
2017-02-20T16:08:14.751Z,9.47
2017-02-20T16:13:11.181Z,9.44
2017-02-20T16:18:07.693Z,9.47
2017-02-20T16:23:03.885Z,9.55
2017-02-20T16:28:00.380Z,9.61
2017-02-20T16:32:56.719Z,9.55
2017-02-20T16:37:53.519Z,9.56
2017-02-20T16:42:50.179Z,9.54
2017-02-20T16:47:46.771Z,9.55
2017-02-20T16:52:42.900Z,9.54
2017-02-20T16:57:39.358Z,9.59
2017-02-20T17:02:36.073Z,9.59
2017-02-20T17:07:32.899Z,9.62
2017-02-20T17:12:29.349Z,9.66
2017-02-20T17:17:25.678Z,9.65
2017-02-20T17:22:22.097Z,9.64
2017-02-20T17:27:18.626Z,9.65
2017-02-20T17:32:15.330Z,9.79
2017-02-20T17:37:11.905Z,9.77
2017-02-20T17:42:08.197Z,9.76
2017-02-20T17:47:04.778Z,9.83
2017-02-20T17:52:01.499Z,9.80
2017-02-20T17:56:57.740Z,9.79
2017-02-20T18:01:54.402Z,9.86
2017-02-20T18:06:50.998Z,9.79
2017-02-20T18:11:47.318Z,9.86
2017-02-20T18:16:44.024Z,9.84
2017-02-20T18:21:40.605Z,9.97
2017-02-20T18:26:37.920Z,9.79
2017-02-20T18:31:35.191Z,9.84
2017-02-20T18:36:32.542Z,9.89
2017-02-20T18:41:28.983Z,9.89
2017-02-20T18:46:25.445Z,9.87
2017-02-20T18:51:21.880Z,9.83
2017-02-20T18:56:17.937Z,9.89
2017-02-20T19:01:14.412Z,10.01
2017-02-20T19:06:10.697Z,9.97
2017-02-20T19:11:07.564Z,10.02
2017-02-20T19:16:04.003Z,9.98
2017-02-20T19:21:00.511Z,9.92
2017-02-20T19:25:57.282Z,9.97
2017-02-20T19:30:53.577Z,10.01
2017-02-20T19:35:51.022Z,10.01
2017-02-20T19:40:48.284Z,10.07
2017-02-20T19:45:44.620Z,10.05
2017-02-20T19:50:41.234Z,10.09
2017-02-20T19:55:37.778Z,10.22
2017-02-20T20:00:34.197Z,10.20
2017-02-20T20:05:30.657Z,10.19
2017-02-20T20:10:27.080Z,10.20
2017-02-20T20:15:23.666Z,10.15
2017-02-20T20:20:20.145Z,10.05
2017-02-20T20:25:16.585Z,10.15
2017-02-20T20:30:14.226Z,10.17
2017-02-20T20:35:10.574Z,10.17
2017-02-20T20:40:07.386Z,10.10
2017-02-20T20:45:04.012Z,10.16
2017-02-20T20:50:01.885Z,10.15
2017-02-20T20:54:58.357Z,10.28
2017-02-20T20:59:55.122Z,10.23
2017-02-20T21:04:51.707Z,10.26
2017-02-20T21:09:48.363Z,10.28
2017-02-20T21:14:44.911Z,10.25
2017-02-20T21:19:41.647Z,10.31
2017-02-20T21:24:38.504Z,10.35
2017-02-20T21:29:35.022Z,10.34
2017-02-20T21:34:31.804Z,10.41
2017-02-20T21:39:28.539Z,10.41
2017-02-20T21:44:24.802Z,10.44
2017-02-20T21:49:22.264Z,10.54
2017-02-20T21:54:18.744Z,10.56
2017-02-20T21:59:15.433Z,10.56
2017-02-20T22:04:12.184Z,10.60
2017-02-20T22:09:09.123Z,10.56
2017-02-20T22:14:05.246Z,10.64
2017-02-20T22:19:02.678Z,10.69
2017-02-20T22:23:58.806Z,10.69
2017-02-20T22:28:56.104Z,10.61
2017-02-20T22:33:52.876Z,10.75
2017-02-20T22:38:49.427Z,10.74
2017-02-20T22:43:45.878Z,10.78
2017-02-20T22:48:42.290Z,10.71
2017-02-20T22:53:38.848Z,10.67
2017-02-20T22:58:35.589Z,10.74
2017-02-20T23:03:32.029Z,10.69
2017-02-20T23:08:28.549Z,10.68
2017-02-20T23:13:25.039Z,10.74
2017-02-20T23:18:21.635Z,10.67
2017-02-20T23:23:18.206Z,10.59
2017-02-20T23:28:14.567Z,10.61
2017-02-20T23:33:10.910Z,10.57
2017-02-20T23:38:08.667Z,10.59
2017-02-20T23:43:04.893Z,10.63
2017-02-20T23:48:01.886Z,10.54
2017-02-20T23:52:58.811Z,10.54
2017-02-20T23:57:55.375Z,10.51
